Time;durP1;ratioP1;P1;durP2;ratioP2;P2;SDS_P1;SDS_P2;PMS_P1;PMS_P2;Temp;Humidity;BMP_temperature;BMP_pressure;BME280_temperature;BME280_humidity;BME280_pressure;Samples;Min_cycle;Max_cycle;Signal;HPM_P1;HPM_P2
2021/12/19 00:02:46;;;;;;;9.68;5.38;;;;;;;5.19;83.47;102247.75;8659799;33;20291;-75
2021/12/19 00:13:12;;;;;;;10.07;6.15;;;;;;;5.41;83.02;102240.00;8658603;33;20433;-75
2021/12/19 00:18:15;;;;;;;10.02;6.47;;;;;;;5.21;83.32;102244.13;8659390;33;20294;-75
2021/12/19 00:23:20;;;;;;;11.20;6.15;;;;;;;5.35;83.38;102232.16;8658944;33;20196;-75
2021/12/19 00:28:23;;;;;;;8.13;5.30;;;;;;;5.45;82.86;102226.53;8656954;33;20183;-75
2021/12/19 00:33:26;;;;;;;9.48;5.32;;;;;;;5.45;82.58;102226.53;8657479;33;20231;-75
2021/12/19 00:38:31;;;;;;;6.95;4.50;;;;;;;5.39;81.58;102225.84;8657483;33;20144;-75
2021/12/19 00:43:36;;;;;;;9.63;4.70;;;;;;;5.23;80.89;102226.28;8655667;33;20543;-75
2021/12/19 00:48:42;;;;;;;8.25;4.97;;;;;;;5.55;81.03;102224.47;8656431;33;20449;-75
2021/12/19 00:53:47;;;;;;;9.48;4.22;;;;;;;5.50;80.57;102218.38;8655784;33;20610;-75
2021/12/19 00:58:50;;;;;;;6.88;4.03;;;;;;;5.65;81.34;102217.03;8657922;33;21007;-75
2021/12/19 01:03:53;;;;;;;8.95;4.88;;;;;;;5.45;81.76;102210.53;8655495;33;20640;-75
2021/12/19 01:08:58;;;;;;;8.15;4.43;;;;;;;5.34;81.56;102217.09;8656879;33;20180;-75
2021/12/19 01:14:03;;;;;;;9.63;5.03;;;;;;;5.52;81.67;102213.03;8656552;33;20658;-75
2021/12/19 01:19:06;;;;;;;5.10;3.78;;;;;;;5.05;82.56;102209.06;8656646;33;20188;-75
2021/12/19 01:24:10;;;;;;;4.75;3.00;;;;;;;4.88;83.46;102213.94;8656619;33;20149;-75
2021/12/19 01:29:14;;;;;;;6.85;3.53;;;;;;;4.74;83.49;102197.47;8656168;33;20613;-75
2021/12/19 01:34:17;;;;;;;5.47;3.38;;;;;;;4.68;84.97;102187.00;8656964;33;20713;-75
2021/12/19 01:39:21;;;;;;;3.97;2.85;;;;;;;4.34;85.99;102185.28;8654476;33;20204;-75
2021/12/19 01:44:26;;;;;;;4.50;2.88;;;;;;;5.04;85.37;102178.00;8655865;33;20133;-76
2021/12/19 01:49:29;;;;;;;5.90;2.72;;;;;;;4.38;87.51;102162.97;8655965;33;20223;-75
2021/12/19 01:54:34;;;;;;;6.28;2.92;;;;;;;4.29;87.86;102174.75;8655796;33;20681;-75
2021/12/19 01:59:37;;;;;;;6.22;3.35;;;;;;;4.70;86.41;102158.56;8654544;33;20189;-75
2021/12/19 02:04:42;;;;;;;6.53;3.53;;;;;;;4.67;86.89;102158.66;8656296;33;21000;-75
2021/12/19 02:09:46;;;;;;;7.97;3.63;;;;;;;4.77;86.18;102141.47;8655824;33;20641;-75
2021/12/19 02:14:49;;;;;;;8.35;3.95;;;;;;;4.75;85.85;102140.66;8658838;33;20277;-75
2021/12/19 02:19:57;;;;;;;6.53;3.67;;;;;;;4.75;85.72;102149.53;8659901;33;20210;-75
2021/12/19 02:25:02;;;;;;;10.52;4.45;;;;;;;4.52;86.44;102152.81;8660504;33;20149;-75
2021/12/19 02:30:08;;;;;;;7.35;4.43;;;;;;;4.34;87.36;102134.72;8660526;33;20214;-75
2021/12/19 02:35:18;;;;;;;5.15;2.75;;;;;;;4.44;86.21;102130.88;8660312;33;21011;-75
2021/12/19 02:40:34;;;;;;;8.70;4.50;;;;;;;4.36;87.33;102135.53;8683458;33;20287;-75
2021/12/19 02:51:02;;;;;;;7.15;4.07;;;;;;;4.70;86.15;102105.31;8651036;33;20437;-74
2021/12/19 02:56:09;;;;;;;10.05;3.90;;;;;;;4.73;85.80;102097.22;8659804;33;20518;-74
2021/12/19 03:01:18;;;;;;;9.30;4.32;;;;;;;4.48;86.04;102091.75;8659803;33;20351;-74
2021/12/19 03:06:21;;;;;;;7.63;4.03;;;;;;;4.49;86.42;102082.84;8659640;33;20177;-74
2021/12/19 03:22:04;;;;;;;9.82;4.10;;;;;;;4.73;85.78;102073.28;8659308;33;20239;-76
2021/12/19 03:27:08;;;;;;;9.10;5.05;;;;;;;4.67;86.08;102071.66;8659010;33;20241;-74
2021/12/19 03:32:11;;;;;;;8.95;4.63;;;;;;;4.79;85.91;102070.41;8658349;33;20199;-76
2021/12/19 03:37:14;;;;;;;9.20;5.00;;;;;;;4.53;86.44;102057.91;8658761;33;20149;-76
2021/12/19 03:42:19;;;;;;;10.15;5.80;;;;;;;4.79;86.09;102054.44;8658619;33;22641;-76
2021/12/19 03:47:22;;;;;;;11.07;6.07;;;;;;;4.54;86.67;102038.34;8658121;33;20692;-76
2021/12/19 03:52:25;;;;;;;9.32;4.90;;;;;;;4.54;86.48;102038.34;8656640;33;20215;-76
2021/12/19 03:57:30;;;;;;;8.68;5.07;;;;;;;4.62;86.53;102036.31;8657684;33;20137;-74
2021/12/19 04:02:33;;;;;;;11.20;6.00;;;;;;;4.66;86.22;102029.09;8657806;33;20202;-76
2021/12/19 04:07:36;;;;;;;8.02;4.30;;;;;;;4.73;85.66;102033.34;8659150;33;20805;-74
2021/12/19 04:12:42;;;;;;;10.88;4.93;;;;;;;4.54;86.13;102025.91;8657851;33;20658;-74
2021/12/19 04:17:45;;;;;;;10.27;4.75;;;;;;;4.71;85.51;102021.84;8657748;33;20953;-74
2021/12/19 04:22:51;;;;;;;10.85;5.20;;;;;;;4.79;85.43;102019.81;8657782;33;20272;-74
2021/12/19 04:27:56;;;;;;;8.10;4.72;;;;;;;4.38;86.55;102016.63;8655647;33;20283;-74
2021/12/19 04:33:02;;;;;;;11.18;6.15;;;;;;;4.76;86.02;102015.47;8656815;33;20630;-74
2021/12/19 04:44:22;;;;;;;9.43;5.07;;;;;;;4.86;85.24;102005.41;8656725;33;20448;-74
2021/12/19 04:54:48;;;;;;;12.10;5.85;;;;;;;4.61;86.41;101992.00;8655456;33;20206;-75
2021/12/19 04:59:56;;;;;;;10.32;5.15;;;;;;;4.74;85.72;101989.81;8657671;33;20874;-75
2021/12/19 05:15:48;;;;;;;9.85;4.97;;;;;;;4.24;87.87;101979.78;8653861;33;20175;-74
2021/12/19 05:20:56;;;;;;;11.90;5.50;;;;;;;4.95;85.63;101980.28;8680458;33;20198;-74
2021/12/19 05:25:59;;;;;;;12.45;5.63;;;;;;;4.82;85.95;101983.31;8699729;33;20153;-74
2021/12/19 05:31:04;;;;;;;11.32;5.25;;;;;;;4.89;85.49;101964.50;8665286;33;20179;-76
2021/12/19 05:46:56;;;;;;;12.43;6.00;;;;;;;4.51;87.40;101955.94;8634142;33;20160;-74
2021/12/19 05:52:00;;;;;;;12.23;5.95;;;;;;;4.73;86.98;101959.66;8660820;33;20241;-74
2021/12/19 05:57:04;;;;;;;13.20;6.72;;;;;;;4.56;87.56;101954.88;8660455;33;20251;-74
2021/12/19 06:02:08;;;;;;;12.63;6.10;;;;;;;4.66;86.62;101958.09;8660047;33;20188;-74
2021/12/19 06:07:11;;;;;;;12.40;6.28;;;;;;;4.86;86.06;101948.63;8660473;33;20261;-75
2021/12/19 06:12:15;;;;;;;11.82;6.45;;;;;;;4.79;86.73;101950.59;8660593;33;20194;-74
2021/12/19 06:17:19;;;;;;;10.60;5.13;;;;;;;4.68;86.56;101934.97;8660423;33;20202;-74
2021/12/19 06:22:22;;;;;;;11.73;5.50;;;;;;;4.43;87.24;101939.31;8660721;33;20192;-75
2021/12/19 06:27:25;;;;;;;13.32;6.55;;;;;;;4.46;87.12;101926.78;8660907;33;20188;-75
2021/12/19 06:32:30;;;;;;;9.27;5.63;;;;;;;4.70;87.11;101935.78;8660592;33;22009;-75
2021/12/19 06:37:35;;;;;;;11.45;5.88;;;;;;;4.55;87.43;101936.25;8661250;33;20676;-75
2021/12/19 06:42:38;;;;;;;11.95;6.30;;;;;;;4.91;86.50;101928.91;8660548;33;20164;-75
2021/12/19 06:47:43;;;;;;;9.85;4.72;;;;;;;4.89;86.10;101938.75;8661017;33;20275;-75
2021/12/19 06:52:48;;;;;;;8.48;4.05;;;;;;;4.72;86.14;101936.63;8660340;33;20180;-75
2021/12/19 06:57:51;;;;;;;6.57;2.83;;;;;;;4.86;85.18;101933.50;8660353;33;20141;-75
2021/12/19 07:02:57;;;;;;;4.78;2.67;;;;;;;4.75;86.60;101931.19;8669250;33;20182;-75
2021/12/19 07:08:00;;;;;;;4.32;2.60;;;;;;;4.51;86.78;101916.88;8660606;33;20203;-75
2021/12/19 07:13:03;;;;;;;4.28;2.47;;;;;;;4.60;86.24;101921.03;8660895;33;20670;-75
2021/12/19 07:18:08;;;;;;;4.97;2.35;;;;;;;4.57;86.69;101921.13;8660141;33;20168;-75
2021/12/19 07:23:12;;;;;;;3.63;1.83;;;;;;;4.68;86.41;101915.47;8659767;33;20184;-75
2021/12/19 07:28:16;;;;;;;3.60;1.95;;;;;;;4.84;86.75;101908.72;8660230;33;20149;-74
2021/12/19 07:33:25;;;;;;;6.45;2.00;;;;;;;4.95;86.59;101909.25;8659461;33;20187;-75
2021/12/19 07:38:32;;;;;;;2.78;1.67;;;;;;;5.21;86.13;101915.50;8658277;33;20516;-75
2021/12/19 07:43:35;;;;;;;2.35;1.70;;;;;;;5.04;85.43;101914.28;8657873;33;20188;-74
2021/12/19 07:48:41;;;;;;;1.45;1.30;;;;;;;4.88;85.63;101902.34;8658738;33;20148;-74
2021/12/19 07:53:45;;;;;;;1.73;1.27;;;;;;;4.83;84.91;101907.00;8658112;33;20326;-75
2021/12/19 07:58:48;;;;;;;1.65;1.42;;;;;;;4.79;85.09;101898.22;8656291;33;20327;-74
2021/12/19 08:03:52;;;;;;;2.00;1.58;;;;;;;4.83;84.68;101896.34;8654433;33;20176;-74
2021/12/19 08:08:57;;;;;;;2.85;1.60;;;;;;;5.11;83.72;101898.13;8659934;33;20195;-75
2021/12/19 08:14:00;;;;;;;1.20;1.10;;;;;;;5.02;82.65;101891.31;8659659;33;20735;-75
2021/12/19 08:19:06;;;;;;;1.33;1.10;;;;;;;5.25;82.15;101871.84;8658793;33;20259;-75
2021/12/19 08:24:11;;;;;;;1.67;1.00;;;;;;;5.22;82.53;101882.63;8659516;33;20176;-75
2021/12/19 08:29:15;;;;;;;3.13;1.75;;;;;;;4.60;85.45;101881.09;8658493;33;20164;-75
2021/12/19 08:34:19;;;;;;;2.45;1.50;;;;;;;4.71;86.59;101876.28;8658238;33;20176;-75
2021/12/19 08:39:22;;;;;;;2.38;1.70;;;;;;;4.59;87.34;101874.91;8658003;33;20846;-75
2021/12/19 08:44:26;;;;;;;2.80;1.75;;;;;;;4.45;87.45;101862.97;8657873;33;20152;-74
2021/12/19 08:49:30;;;;;;;2.65;2.05;;;;;;;4.50;87.34;101856.59;8654600;33;20500;-75
2021/12/19 08:54:34;;;;;;;3.10;2.22;;;;;;;4.15;88.97;101863.00;8655323;33;20502;-74
2021/12/19 08:59:37;;;;;;;3.55;1.58;;;;;;;4.44;87.82;101854.09;8656838;33;20210;-74
2021/12/19 09:04:41;;;;;;;2.42;2.00;;;;;;;4.44;87.93;101878.06;8657349;33;20188;-75
2021/12/19 09:09:45;;;;;;;1.63;1.50;;;;;;;4.49;87.92;101868.13;8656949;33;20141;-75
2021/12/19 09:14:49;;;;;;;3.33;1.98;;;;;;;4.59;87.73;101850.09;8656737;33;20145;-76
2021/12/19 09:19:53;;;;;;;2.17;2.03;;;;;;;4.50;88.05;101842.38;8654977;33;20246;-76
2021/12/19 09:24:56;;;;;;;3.05;2.10;;;;;;;4.54;87.71;101836.06;8657070;33;21072;-75
2021/12/19 09:29:59;;;;;;;3.90;2.55;;;;;;;4.64;87.56;101836.66;8656267;33;20172;-76
2021/12/19 09:35:06;;;;;;;5.20;3.03;;;;;;;4.90;86.84;101846.41;8657040;33;20152;-76
2021/12/19 09:40:17;;;;;;;4.13;2.75;;;;;;;4.72;87.74;101848.78;8656505;33;20283;-75
2021/12/19 09:45:21;;;;;;;5.55;3.20;;;;;;;4.93;86.81;101847.16;8656292;33;20366;-76
2021/12/19 09:50:26;;;;;;;6.60;3.40;;;;;;;4.75;86.93;101840.69;8656120;33;20440;-76
2021/12/19 09:55:29;;;;;;;4.85;3.13;;;;;;;4.80;86.23;101832.50;8655693;33;20267;-76
2021/12/19 10:00:32;;;;;;;6.75;3.80;;;;;;;4.84;86.50;101828.84;8655204;33;20839;-76
2021/12/19 10:05:37;;;;;;;6.13;4.07;;;;;;;5.12;85.34;101826.13;8656260;33;20461;-76
2021/12/19 10:10:46;;;;;;;8.68;4.53;;;;;;;4.91;85.50;101829.50;8655397;33;20137;-76
2021/12/19 10:15:50;;;;;;;10.30;4.75;;;;;;;4.95;85.48;101810.69;8657224;33;20259;-76
2021/12/19 10:20:57;;;;;;;6.50;4.57;;;;;;;5.01;84.83;101821.16;8657239;33;20261;-76
2021/12/19 10:26:06;;;;;;;9.38;5.07;;;;;;;5.39;84.66;101815.41;8656743;33;20199;-76
2021/12/19 10:31:11;;;;;;;7.75;4.18;;;;;;;5.08;85.50;101805.84;8625936;33;20346;-76
2021/12/19 10:36:18;;;;;;;19.55;6.22;;;;;;;5.38;84.77;101808.34;8601969;33;21763;-76
2021/12/19 10:41:33;;;;;;;8.00;4.68;;;;;;;5.38;84.42;101787.88;8603398;33;20835;-77
2021/12/19 10:46:44;;;;;;;8.80;4.82;;;;;;;5.53;84.92;101769.56;8605601;33;20188;-77
2021/12/19 10:51:49;;;;;;;12.00;5.68;;;;;;;5.33;85.06;101759.66;8604120;33;20279;-77
2021/12/19 10:57:07;;;;;;;8.75;4.78;;;;;;;5.21;85.80;101748.53;8604929;33;75118;-77
2021/12/19 11:02:10;;;;;;;12.00;5.20;;;;;;;4.89;85.90;101739.03;8602240;33;20199;-75
2021/12/19 11:07:23;;;;;;;8.07;4.80;;;;;;;5.18;85.28;101742.44;8603672;33;20316;-76
2021/12/19 11:12:26;;;;;;;8.38;4.15;;;;;;;5.42;84.99;101735.31;8638550;33;20205;-75
2021/12/19 11:17:30;;;;;;;7.32;4.03;;;;;;;5.53;84.89;101724.25;8641211;33;20201;-76
2021/12/19 11:22:34;;;;;;;8.60;4.38;;;;;;;5.29;85.11;101713.59;8606124;33;20535;-77
2021/12/19 11:27:38;;;;;;;9.20;4.45;;;;;;;5.34;84.93;101710.75;8606423;33;21567;-77
2021/12/19 11:32:56;;;;;;;9.65;4.97;;;;;;;5.41;84.83;101709.63;8604289;33;20184;-77
2021/12/19 11:38:06;;;;;;;7.88;4.50;;;;;;;4.96;85.55;101692.56;8604659;33;20236;-77
2021/12/19 11:43:12;;;;;;;9.57;4.13;;;;;;;5.12;85.58;101692.06;8577720;33;20142;-75
2021/12/19 11:48:22;;;;;;;10.60;4.40;;;;;;;5.10;85.21;101678.81;8600642;33;20248;-76
2021/12/19 11:53:30;;;;;;;8.40;3.78;;;;;;;5.32;84.21;101668.22;8598850;33;20417;-76
2021/12/19 11:58:39;;;;;;;9.75;4.60;;;;;;;5.27;84.56;101662.19;8601850;33;20965;-75
2021/12/19 12:03:51;;;;;;;8.52;3.97;;;;;;;5.28;84.67;101659.44;8601259;33;20216;-76
2021/12/19 12:09:13;;;;;;;6.50;4.18;;;;;;;5.04;85.01;101669.22;8601131;33;20271;-76
2021/12/19 12:14:22;;;;;;;5.18;3.70;;;;;;;5.65;83.99;101649.13;8602195;33;20185;-76
2021/12/19 12:19:42;;;;;;;5.05;3.58;;;;;;;5.41;84.63;101649.19;8600702;33;20352;-76
2021/12/19 12:25:16;;;;;;;6.43;3.10;;;;;;;5.32;84.84;101646.88;8599592;33;20196;-77
2021/12/19 12:30:25;;;;;;;7.13;3.58;;;;;;;5.29;84.78;101649.66;8600184;33;20236;-76
2021/12/19 12:35:31;;;;;;;7.22;3.00;;;;;;;5.66;83.82;101632.22;8599790;33;20181;-75
2021/12/19 12:40:54;;;;;;;5.93;3.05;;;;;;;5.60;84.02;101640.47;8599758;33;20244;-76
2021/12/19 12:46:09;;;;;;;9.45;4.13;;;;;;;5.56;84.01;101629.03;8600432;33;20245;-76
2021/12/19 12:51:19;;;;;;;7.13;2.55;;;;;;;5.61;83.36;101611.06;8599661;33;20765;-76
2021/12/19 12:56:31;;;;;;;5.82;4.03;;;;;;;5.69;83.47;101608.09;8599776;33;20205;-76
2021/12/19 13:01:38;;;;;;;6.97;4.65;;;;;;;5.52;83.37;101608.78;8599367;33;20379;-76
2021/12/19 13:06:59;;;;;;;9.25;2.70;;;;;;;5.68;83.91;101601.03;8621976;33;20654;-76
2021/12/19 13:12:13;;;;;;;6.63;2.65;;;;;;;5.20;84.19;101612.72;8596470;33;20192;-76
2021/12/19 13:17:23;;;;;;;4.90;2.45;;;;;;;5.39;84.11;101603.06;8600052;33;20483;-75
2021/12/19 13:22:35;;;;;;;5.97;2.80;;;;;;;5.40;84.99;101590.59;8598956;33;20188;-76
2021/12/19 13:27:42;;;;;;;4.97;2.38;;;;;;;5.25;85.33;101579.63;8599786;33;20352;-76
2021/12/19 13:32:48;;;;;;;5.25;3.15;;;;;;;5.16;86.37;101576.47;8598466;33;20227;-76
2021/12/19 13:37:57;;;;;;;8.43;3.83;;;;;;;5.13;86.76;101558.81;8598027;33;20250;-76
2021/12/19 13:43:04;;;;;;;6.43;3.50;;;;;;;5.29;86.96;101559.06;8598952;33;20221;-76
2021/12/19 13:48:11;;;;;;;7.68;4.78;;;;;;;4.98;88.16;101554.06;8597759;33;20476;-76
2021/12/19 13:53:16;;;;;;;7.25;3.60;;;;;;;5.08;87.57;101543.94;8592910;33;20289;-76
2021/12/19 13:58:23;;;;;;;5.22;2.88;;;;;;;5.04;87.46;101545.84;8593577;33;20142;-76
2021/12/19 14:03:46;;;;;;;7.30;3.65;;;;;;;5.10;86.12;101534.97;8599109;33;20201;-76
2021/12/19 14:08:53;;;;;;;7.55;3.28;;;;;;;5.52;84.72;101530.63;8602058;33;20272;-77
2021/12/19 14:14:08;;;;;;;7.22;2.95;;;;;;;4.98;85.94;101543.41;8602937;33;20232;-76
2021/12/19 14:19:21;;;;;;;5.80;3.60;;;;;;;5.46;84.33;101545.94;8603228;33;20222;-76
2021/12/19 14:24:35;;;;;;;8.90;3.30;;;;;;;5.13;85.45;101532.19;8601989;33;20185;-75
2021/12/19 14:29:42;;;;;;;4.93;2.90;;;;;;;5.07;85.68;101532.41;8602548;33;20812;-76
2021/12/19 14:34:50;;;;;;;6.85;3.42;;;;;;;5.39;84.43;101539.09;8603300;33;20235;-75
2021/12/19 14:40:18;;;;;;;7.68;3.78;;;;;;;5.42;84.33;101530.97;8600018;33;20187;-76
2021/12/19 14:45:26;;;;;;;7.25;3.67;;;;;;;5.31;85.13;101517.22;8599783;33;20134;-77
2021/12/19 14:50:34;;;;;;;10.38;4.25;;;;;;;5.13;85.44;101517.97;8598047;33;20142;-75
2021/12/19 14:55:47;;;;;;;5.95;2.78;;;;;;;5.25;84.57;101514.81;8602607;33;20725;-75
2021/12/19 15:00:57;;;;;;;5.95;2.38;;;;;;;5.55;83.43;101495.84;8597372;33;20149;-76
2021/12/19 15:06:03;;;;;;;4.85;2.35;;;;;;;5.35;83.69;101499.31;8601430;33;20185;-76
2021/12/19 15:11:07;;;;;;;7.20;2.50;;;;;;;5.28;83.84;101496.03;8600729;33;20181;-76
2021/12/19 15:16:11;;;;;;;7.05;2.75;;;;;;;5.40;84.35;101476.00;8595992;33;22054;-76
2021/12/19 15:21:16;;;;;;;7.93;2.97;;;;;;;5.35;84.77;101492.22;8619508;33;20230;-76
2021/12/19 15:26:20;;;;;;;4.20;2.47;;;;;;;4.97;85.31;101491.94;8603425;33;20160;-75
2021/12/19 15:31:26;;;;;;;8.05;3.45;;;;;;;5.22;85.81;101477.66;8603262;33;20527;-75
2021/12/19 15:36:29;;;;;;;6.25;3.28;;;;;;;5.19;85.60;101483.13;8603965;33;20713;-76
2021/12/19 15:41:32;;;;;;;9.90;3.88;;;;;;;5.38;84.96;101481.41;8602386;33;20459;-76
2021/12/19 15:46:37;;;;;;;7.93;3.25;;;;;;;5.42;84.57;101477.69;8602960;33;20920;-76
2021/12/19 15:51:40;;;;;;;6.75;3.05;;;;;;;5.21;85.42;101475.91;8605291;33;20384;-76
2021/12/19 15:56:43;;;;;;;6.00;3.10;;;;;;;5.23;85.07;101485.56;8604273;33;20193;-76
2021/12/19 16:01:48;;;;;;;5.53;3.25;;;;;;;4.98;86.28;101459.03;8618629;33;20443;-76
2021/12/19 16:06:51;;;;;;;7.80;2.95;;;;;;;5.32;85.04;101460.38;8619586;33;20186;-76
2021/12/19 16:11:54;;;;;;;7.13;3.00;;;;;;;5.20;84.12;101467.06;8602769;33;20461;-76
2021/12/19 16:17:00;;;;;;;8.85;2.67;;;;;;;5.30;83.83;101437.38;8611382;33;20915;-75
2021/12/19 16:22:04;;;;;;;4.93;2.35;;;;;;;5.45;83.46;101455.38;8601353;33;21010;-77
2021/12/19 16:27:07;;;;;;;5.72;2.33;;;;;;;5.20;83.74;101452.88;8602563;33;20611;-77
2021/12/19 16:32:12;;;;;;;6.95;2.42;;;;;;;5.41;83.46;101449.31;8604566;33;20157;-76
2021/12/19 16:37:16;;;;;;;6.82;2.67;;;;;;;5.36;83.63;101445.97;8601510;33;20637;-76
2021/12/19 16:47:42;;;;;;;10.60;3.00;;;;;;;5.19;84.12;101432.50;8601806;33;20512;-76
2021/12/19 16:52:45;;;;;;;5.72;3.08;;;;;;;5.34;82.92;101446.97;8599106;33;20291;-76
2021/12/19 16:57:48;;;;;;;6.38;2.80;;;;;;;5.28;82.95;101416.13;8600959;33;20219;-75
2021/12/19 17:02:58;;;;;;;8.25;3.40;;;;;;;5.41;82.06;101454.63;8599413;33;20177;-75
2021/12/19 17:08:02;;;;;;;7.40;2.97;;;;;;;5.15;82.32;101423.75;8621702;33;20596;-76
2021/12/19 17:13:14;;;;;;;8.45;3.20;;;;;;;5.51;81.50;101436.44;8603215;33;20227;-76
2021/12/19 17:18:20;;;;;;;8.70;2.97;;;;;;;5.62;80.35;101438.66;8628863;33;20585;-75
2021/12/19 17:23:24;;;;;;;7.40;3.15;;;;;;;5.69;79.73;101442.78;8623471;33;20330;-76
2021/12/19 17:28:27;;;;;;;6.75;2.85;;;;;;;5.56;79.76;101437.13;8601718;33;21032;-75
2021/12/19 17:33:31;;;;;;;6.75;3.00;;;;;;;5.57;78.92;101433.53;8621205;33;20288;-76
2021/12/19 17:38:34;;;;;;;5.15;2.10;;;;;;;5.43;79.12;101446.56;8601300;33;20456;-75
2021/12/19 17:43:38;;;;;;;11.73;2.65;;;;;;;5.57;78.44;101429.97;8599846;33;20515;-76
2021/12/19 17:48:43;;;;;;;4.05;3.00;;;;;;;5.67;78.53;101444.66;8598147;33;20288;-76
2021/12/19 17:53:49;;;;;;;7.25;2.97;;;;;;;5.61;78.73;101431.59;8598244;33;20189;-77
2021/12/19 17:58:52;;;;;;;5.68;2.90;;;;;;;5.47;78.59;101440.19;8598845;33;20185;-77
2021/12/19 18:03:57;;;;;;;5.82;2.88;;;;;;;5.50;79.18;101435.59;8599641;33;20196;-76
2021/12/19 18:09:06;;;;;;;7.10;2.83;;;;;;;5.33;80.32;101422.13;8626150;33;20276;-76
2021/12/19 18:14:09;;;;;;;10.50;3.30;;;;;;;5.55;79.77;101437.19;8600124;33;20268;-76
2021/12/19 18:19:13;;;;;;;12.18;7.55;;;;;;;5.44;80.33;101424.34;8599910;33;21675;-76
2021/12/19 18:24:18;;;;;;;8.93;3.42;;;;;;;5.37;80.06;101425.50;8598139;33;20245;-77
2021/12/19 18:29:24;;;;;;;9.88;4.20;;;;;;;5.71;79.69;101427.59;8599777;33;20153;-77
2021/12/19 18:34:34;;;;;;;13.18;4.22;;;;;;;5.63;79.64;101419.94;8598625;33;20192;-77
2021/12/19 18:39:42;;;;;;;15.07;5.03;;;;;;;5.60;79.67;101422.72;8598541;33;20189;-77
2021/12/19 18:44:51;;;;;;;8.38;3.15;;;;;;;5.40;80.29;101422.72;8598239;33;20204;-77
2021/12/19 18:50:03;;;;;;;6.75;5.82;;;;;;;5.68;79.09;101441.06;8598925;33;20246;-77
2021/12/19 18:55:19;;;;;;;13.05;6.03;;;;;;;5.63;78.92;101435.06;8599689;33;20458;-76
2021/12/19 19:00:37;;;;;;;11.02;4.40;;;;;;;5.62;79.10;101419.97;8602277;33;20614;-77
2021/12/19 19:05:45;;;;;;;9.15;3.15;;;;;;;5.29;79.91;101425.84;8602642;33;20266;-77
2021/12/19 19:10:50;;;;;;;10.50;5.63;;;;;;;5.50;78.99;101432.06;8601972;33;20182;-77
2021/12/19 19:15:53;;;;;;;3.55;2.45;;;;;;;5.61;78.88;101427.13;8603945;33;20193;-77
2021/12/19 19:20:57;;;;;;;8.75;3.33;;;;;;;5.52;78.89;101432.00;8600809;33;20483;-77
2021/12/19 19:26:01;;;;;;;10.80;4.20;;;;;;;5.58;78.81;101429.94;8601255;33;20917;-76
2021/12/19 19:31:05;;;;;;;10.02;6.30;;;;;;;5.54;78.82;101428.34;8601181;33;20740;-76
2021/12/19 19:36:10;;;;;;;5.78;3.17;;;;;;;5.67;78.46;101431.31;8600041;33;20546;-76
2021/12/19 19:41:25;;;;;;;11.93;7.32;;;;;;;5.47;79.35;101430.38;8600791;33;20139;-75
2021/12/19 19:51:50;;;;;;;8.95;4.07;;;;;;;5.61;77.12;101447.59;8599758;33;20181;-77
2021/12/19 19:56:54;;;;;;;13.07;3.40;;;;;;;5.66;75.76;101432.25;8602277;33;20168;-77
2021/12/19 20:02:02;;;;;;;12.50;3.75;;;;;;;5.59;74.79;101444.09;8599196;33;20157;-77
2021/12/19 20:07:07;;;;;;;12.77;4.20;;;;;;;5.57;73.18;101436.19;8602043;33;20296;-77
2021/12/19 20:12:11;;;;;;;14.30;4.90;;;;;;;5.69;72.56;101440.97;8602979;33;20701;-76
2021/12/19 20:17:14;;;;;;;12.20;3.58;;;;;;;5.72;72.47;101459.50;8602844;33;20564;-76
2021/12/19 20:22:19;;;;;;;12.35;3.47;;;;;;;5.69;72.04;101458.78;8602245;33;20138;-77
2021/12/19 20:27:22;;;;;;;13.93;3.80;;;;;;;5.65;71.62;101452.72;8602146;33;20245;-77
2021/12/19 20:32:25;;;;;;;12.90;3.25;;;;;;;5.73;71.42;101468.38;8601516;33;20227;-76
2021/12/19 20:37:30;;;;;;;13.15;3.38;;;;;;;5.77;70.99;101482.44;8598978;33;20275;-77
2021/12/19 20:42:34;;;;;;;12.55;4.40;;;;;;;5.67;70.65;101481.97;8600046;33;20343;-77
2021/12/19 20:47:37;;;;;;;10.88;3.58;;;;;;;5.76;71.16;101478.03;8600326;33;20621;-77
2021/12/19 20:52:42;;;;;;;23.92;4.80;;;;;;;5.73;71.66;101479.03;8599444;33;20615;-77
2021/12/19 20:57:47;;;;;;;17.08;4.13;;;;;;;5.70;71.84;101484.50;8602277;33;20157;-77
2021/12/19 21:02:51;;;;;;;16.08;4.45;;;;;;;5.63;72.07;101477.72;8600023;33;21471;-76
2021/12/19 21:07:56;;;;;;;18.88;4.95;;;;;;;5.54;72.19;101475.41;8622416;33;20562;-77
2021/12/19 21:13:02;;;;;;;13.90;3.90;;;;;;;5.43;72.33;101481.22;8599165;33;20663;-77
2021/12/19 21:23:28;;;;;;;15.52;5.78;;;;;;;5.27;72.54;101475.69;8599292;33;20724;-77
2021/12/19 21:28:31;;;;;;;12.98;4.82;;;;;;;5.22;71.82;101483.84;8598181;33;20251;-77
2021/12/19 21:33:34;;;;;;;23.25;5.47;;;;;;;5.10;71.04;101479.03;8597631;33;20651;-77
2021/12/19 21:38:48;;;;;;;23.90;5.35;;;;;;;4.59;72.08;101485.47;8594721;33;20166;-77
2021/12/19 21:43:53;;;;;;;12.98;4.40;;;;;;;4.60;72.29;101485.38;8597676;33;20284;-76
2021/12/19 21:48:56;;;;;;;17.83;6.43;;;;;;;4.30;72.45;101470.59;8598518;33;22171;-77
2021/12/19 21:54:02;;;;;;;19.85;4.25;;;;;;;4.27;72.12;101481.34;8593993;33;20189;-76
2021/12/19 21:59:05;;;;;;;14.80;4.63;;;;;;;3.99;72.26;101470.88;8598509;33;20189;-77
2021/12/19 22:04:09;;;;;;;16.73;4.72;;;;;;;3.81;73.31;101465.25;8595896;33;20220;-76
2021/12/19 22:09:15;;;;;;;18.70;3.85;;;;;;;3.78;73.27;101469.84;8597432;33;20228;-77
2021/12/19 22:19:39;;;;;;;15.02;3.90;;;;;;;3.43;74.36;101458.66;8594989;33;20188;-77
2021/12/19 22:24:45;;;;;;;17.15;4.03;;;;;;;3.28;74.60;101450.28;8600561;33;20189;-77
2021/12/19 22:29:49;;;;;;;15.15;4.35;;;;;;;3.26;74.66;101459.19;8599610;33;20223;-77
2021/12/19 22:34:52;;;;;;;18.55;5.00;;;;;;;3.11;74.93;101465.91;8609808;33;20189;-77
2021/12/19 22:39:56;;;;;;;15.07;4.15;;;;;;;3.24;74.74;101453.97;8610015;33;20184;-77
2021/12/19 22:44:59;;;;;;;13.50;4.82;;;;;;;3.31;74.59;101451.09;8605036;33;20448;-77
2021/12/19 22:50:03;;;;;;;16.77;4.88;;;;;;;3.20;74.50;101441.69;8604582;33;20138;-77
2021/12/19 22:55:09;;;;;;;20.65;5.38;;;;;;;3.16;74.63;101455.16;8604446;33;20216;-77
2021/12/19 23:00:25;;;;;;;13.40;5.07;;;;;;;3.15;74.67;101462.22;8604275;33;20189;-77
2021/12/19 23:05:29;;;;;;;22.45;4.25;;;;;;;3.16;74.78;101457.78;8604609;33;20181;-77
2021/12/19 23:10:34;;;;;;;26.48;4.50;;;;;;;3.12;74.88;101466.75;8604601;33;20424;-77
2021/12/19 23:15:39;;;;;;;13.27;4.43;;;;;;;3.06;75.15;101475.81;8605216;33;20221;-77
2021/12/19 23:20:43;;;;;;;22.60;5.32;;;;;;;3.05;75.36;101466.97;8629203;33;20387;-77
2021/12/19 23:25:47;;;;;;;25.98;5.15;;;;;;;2.99;75.52;101466.28;8645578;33;20189;-77
2021/12/19 23:30:50;;;;;;;17.60;4.57;;;;;;;2.90;75.79;101471.91;8606497;33;21071;-77
2021/12/19 23:35:57;;;;;;;13.90;4.28;;;;;;;2.87;76.16;101478.16;8604643;33;20526;-77
2021/12/19 23:41:36;;;;;;;18.48;4.85;;;;;;;2.84;76.05;101486.22;8602029;33;20914;-77
2021/12/19 23:46:39;;;;;;;17.17;4.70;;;;;;;2.86;76.29;101478.25;8603496;33;20252;-77
2021/12/19 23:51:43;;;;;;;27.42;5.97;;;;;;;2.84;76.53;101473.81;8602832;33;20567;-77
2021/12/19 23:56:47;;;;;;;22.63;5.45;;;;;;;2.82;76.29;101480.09;8604002;33;20267;-77
